Airfield :
LOGIN :

Register | Disclaimer

   EN    FR    IT 

 










Legend :    VFR   Marginal VFR   IFR   Intensive IFR   Very Intensive IFR
Visi :
Ceiling :
>= 8 km
>= 3000ft
5 to 8 km
1000 to 3000 ft
1500m to 5 km
500 to 1000 ft
800 to 1500m
200 to 500 ft
< 800m
< 200 ft
Symbols :   Thunderstorms  Fog  Heavy snow  Heavy precipitations  Wind > 20 kt
SIGMETs :     Misc.  Thunderstorms  Icing  Turbulence  Mountain Waves  Volcanic Ashes






- Airport Elevation : 297 ft
- IATA code : UIP


LFRQ - Quimper Pluguffan

CURRENT METAR :
  • 171900Z AUTO 19005KT 150V210 9999 -RA BKN004/// OVC008/// ///TCU 17/17 Q1011 TEMPO 2500 RA OVC003 BKN015CB

EXPIRED METARs :
  • 171830Z AUTO 17005KT 140V200 9999 -RA BKN003/// OVC100/// ///TCU 17/17 Q1011 TEMPO 2500 RA OVC003 BKN015CB
  • 171800Z AUTO 17004KT 130V240 8000 RA BKN003/// OVC007/// ///TCU 17/17 Q1011 TEMPO 2500 RA OVC003 BKN015CB
  • 171730Z AUTO 12004KT 080V150 7000 // OVC003/// ///TCU 17/17 Q1011
  • 171700Z AUTO 14006KT 110V170 9000 // FEW004/// BKN008/// BKN013/// ///TCU 17/17 Q1011
  • 171630Z AUTO 16007KT 4700 // BKN004/// OVC064/// ///TCU 17/16 Q1011

TAF TAF LFRQ
Valid from the 17 at 18:00 until the 18 at 18:00 UTC


171700Z 1718/1818 17007KT 7000 -RA SCT004 BKN012
TEMPO 1718/1723 2500 RA OVC003 BKN015CB
BECMG 1723/1801 9999 NSW SCT013
PROB30
TEMPO 1800/1805 1400 BR BKN004
TEMPO 1812/1818 4000 SHRA BKN025CB



MET'MAP, your aeronautical weather chart ! - Copyright ORBIFLY December 2007 - Disclaimer

ORBIFLY MET'MAP TEAM :

Programming & Development : Alexandra Zaïnal
Concept & original design : Baudouin d'Aumeries
Assistance for programming : Marc-Olivier Méhu
Technical & hardware support : Manuel Goepfert

Contact : metmap@orbifly.com




SOURCES & CREDITS :

   NOAA